createdAt,value
2023-03-16T00:00:28.791Z,2.03
2023-03-16T00:01:05.880Z,2.21
2023-03-16T00:01:37.469Z,2.16
2023-03-16T00:02:10.427Z,2.30
2023-03-16T00:02:42.872Z,2.13
2023-03-16T00:03:19.481Z,2.26
2023-03-16T00:03:51.124Z,2.20
2023-03-16T00:04:22.682Z,2.29
2023-03-16T00:04:55.512Z,2.29
2023-03-16T00:05:29.758Z,2.29
2023-03-16T00:06:01.316Z,2.26
2023-03-16T00:06:32.867Z,2.24
2023-03-16T00:07:14.500Z,2.29
2023-03-16T00:07:46.083Z,2.22
2023-03-16T00:08:17.905Z,2.22
2023-03-16T00:08:49.681Z,2.23
2023-03-16T00:09:21.278Z,2.25
2023-03-16T00:09:52.855Z,2.34
2023-03-16T00:10:27.442Z,2.34
2023-03-16T00:10:59.329Z,2.32
2023-03-16T00:11:31.006Z,2.37
2023-03-16T00:12:03.422Z,2.27
2023-03-16T00:12:34.973Z,2.24
2023-03-16T00:13:08.812Z,2.31
2023-03-16T00:13:42.874Z,2.29
2023-03-16T00:14:14.445Z,2.37
2023-03-16T00:14:47.454Z,2.35
2023-03-16T00:15:19.102Z,2.47
2023-03-16T00:15:56.246Z,2.49
2023-03-16T00:16:27.865Z,2.51
2023-03-16T00:16:59.414Z,2.44
2023-03-16T00:17:31.192Z,2.46
2023-03-16T00:18:03.513Z,2.36
2023-03-16T00:18:38.890Z,2.44
2023-03-16T00:19:10.988Z,2.54
2023-03-16T00:19:46.887Z,2.52
2023-03-16T00:20:18.840Z,2.40
2023-03-16T00:20:52.155Z,2.34
2023-03-16T00:21:23.682Z,2.30
2023-03-16T00:21:55.247Z,2.47
2023-03-16T00:22:28.705Z,2.44
2023-03-16T00:23:02.888Z,2.55
2023-03-16T00:23:38.111Z,2.54
2023-03-16T00:24:10.056Z,2.63
2023-03-16T00:24:43.258Z,2.51
2023-03-16T00:25:17.084Z,2.47
2023-03-16T00:25:48.935Z,2.64
2023-03-16T00:26:20.472Z,2.54
2023-03-16T00:26:54.899Z,2.64
2023-03-16T00:27:27.245Z,2.58
2023-03-16T00:27:58.906Z,2.52
2023-03-16T00:28:35.162Z,2.50
2023-03-16T00:29:06.768Z,2.51
2023-03-16T00:29:38.308Z,2.42
2023-03-16T00:30:11.678Z,2.55
2023-03-16T00:30:47.540Z,2.54
2023-03-16T00:31:20.447Z,2.46
2023-03-16T00:31:52.342Z,2.34
2023-03-16T00:32:25.005Z,2.51
2023-03-16T00:32:56.669Z,2.49
2023-03-16T00:33:29.070Z,2.51
2023-03-16T00:34:02.784Z,2.39
2023-03-16T00:34:34.928Z,2.40
2023-03-16T00:35:09.400Z,2.53
2023-03-16T00:35:49.802Z,2.41
2023-03-16T00:36:22.722Z,2.32
2023-03-16T00:36:55.209Z,2.35
2023-03-16T00:37:27.257Z,2.42
2023-03-16T00:37:58.822Z,2.51
2023-03-16T00:38:34.957Z,2.63
2023-03-16T00:39:06.971Z,2.55
2023-03-16T00:39:38.763Z,2.50
2023-03-16T00:40:12.599Z,2.41
2023-03-16T00:40:44.579Z,2.46
2023-03-16T00:41:18.402Z,2.46
2023-03-16T00:41:51.055Z,2.38
2023-03-16T00:42:27.691Z,2.28
2023-03-16T00:42:59.287Z,2.29
2023-03-16T00:43:32.504Z,2.36
2023-03-16T00:44:05.309Z,2.45
2023-03-16T00:44:37.565Z,2.40
2023-03-16T00:45:10.083Z,2.52
2023-03-16T00:45:44.990Z,2.44
2023-03-16T00:46:17.795Z,2.40
2023-03-16T00:46:49.417Z,2.32
2023-03-16T00:47:21.570Z,2.26
2023-03-16T00:47:54.242Z,2.28
2023-03-16T00:48:25.853Z,2.26
2023-03-16T00:48:57.535Z,2.33
2023-03-16T00:49:29.118Z,2.28
2023-03-16T00:50:01.412Z,2.45
2023-03-16T00:50:33.273Z,2.62
2023-03-16T00:51:06.954Z,2.52
2023-03-16T00:51:38.546Z,2.45
2023-03-16T00:52:14.638Z,2.65
2023-03-16T00:52:46.252Z,2.59
2023-03-16T00:53:17.762Z,2.56
2023-03-16T00:53:49.803Z,2.57
2023-03-16T00:54:22.270Z,2.62
2023-03-16T00:54:55.363Z,2.58
2023-03-16T00:55:27.094Z,2.47
2023-03-16T00:55:58.661Z,2.47
2023-03-16T00:56:30.211Z,2.53
2023-03-16T00:57:02.354Z,2.55
2023-03-16T00:57:34.349Z,2.49
2023-03-16T00:58:05.968Z,2.55
2023-03-16T00:58:39.423Z,2.54
2023-03-16T00:59:12.987Z,2.58
2023-03-16T00:59:48.028Z,2.58
2023-03-16T01:00:21.225Z,2.50
2023-03-16T01:00:54.284Z,2.41
2023-03-16T01:01:27.459Z,2.49
2023-03-16T01:01:59.351Z,2.56
2023-03-16T01:02:30.885Z,2.59
2023-03-16T01:03:02.529Z,2.61
2023-03-16T01:03:34.879Z,2.50
2023-03-16T01:04:06.494Z,2.58
2023-03-16T01:04:41.291Z,2.56
2023-03-16T01:05:13.878Z,2.56
2023-03-16T01:05:45.627Z,2.73
2023-03-16T01:06:20.521Z,2.70
2023-03-16T01:06:52.820Z,2.65
2023-03-16T01:07:24.381Z,2.71
2023-03-16T01:07:56.115Z,2.66
2023-03-16T01:08:30.645Z,2.54
2023-03-16T01:09:05.389Z,2.58
2023-03-16T01:09:37.276Z,2.69
2023-03-16T01:10:09.764Z,2.77
2023-03-16T01:10:41.299Z,2.80
2023-03-16T01:11:18.554Z,2.63
2023-03-16T01:11:53.756Z,2.55
2023-03-16T01:12:25.332Z,2.54
2023-03-16T01:12:56.868Z,2.57
2023-03-16T01:13:28.498Z,2.62
2023-03-16T01:14:00.286Z,2.51
2023-03-16T01:14:33.244Z,2.66
2023-03-16T01:15:05.615Z,2.65
2023-03-16T01:15:37.498Z,2.54
2023-03-16T01:16:09.773Z,2.60
2023-03-16T01:16:41.445Z,2.51
2023-03-16T01:17:14.633Z,2.68
2023-03-16T01:17:47.343Z,2.56
2023-03-16T01:18:20.347Z,2.54
2023-03-16T01:18:56.180Z,2.47
2023-03-16T01:19:28.065Z,2.64
2023-03-16T01:19:59.610Z,2.53
2023-03-16T01:20:33.539Z,2.61
2023-03-16T01:21:08.958Z,2.69
2023-03-16T01:21:42.396Z,2.62
2023-03-16T01:22:17.348Z,2.70
2023-03-16T01:22:48.897Z,2.79
2023-03-16T01:23:21.254Z,2.63
2023-03-16T01:23:53.875Z,2.58
2023-03-16T01:24:25.514Z,2.64
2023-03-16T01:24:57.074Z,2.57
2023-03-16T01:25:28.614Z,2.65
2023-03-16T01:26:00.688Z,2.59
2023-03-16T01:26:32.782Z,2.51
2023-03-16T01:27:05.582Z,2.61
2023-03-16T01:27:37.938Z,2.59
2023-03-16T01:28:10.404Z,2.74
2023-03-16T01:28:42.025Z,2.60
2023-03-16T01:29:13.555Z,2.66
2023-03-16T01:29:45.357Z,2.68
2023-03-16T01:30:17.054Z,2.55
2023-03-16T01:30:48.749Z,2.51
2023-03-16T01:31:20.366Z,2.51
2023-03-16T01:31:51.996Z,2.64
2023-03-16T01:32:24.006Z,2.66
2023-03-16T01:32:55.875Z,2.60
2023-03-16T01:33:28.157Z,2.65
2023-03-16T01:34:00.961Z,2.57
2023-03-16T01:34:35.148Z,2.55
2023-03-16T01:35:07.995Z,2.59
2023-03-16T01:35:39.781Z,2.62
2023-03-16T01:36:14.350Z,2.65
2023-03-16T01:37:06.711Z,2.61
2023-03-16T01:37:57.340Z,2.63
2023-03-16T01:38:31.184Z,2.54
2023-03-16T01:39:03.247Z,2.57
2023-03-16T01:39:45.778Z,2.58
2023-03-16T01:40:19.059Z,2.52
2023-03-16T01:40:52.011Z,2.47
2023-03-16T01:41:23.624Z,2.47
2023-03-16T01:41:55.605Z,2.53
2023-03-16T01:42:27.184Z,2.52
2023-03-16T01:43:02.338Z,2.53
2023-03-16T01:43:38.426Z,2.56
2023-03-16T01:44:15.952Z,2.62
2023-03-16T01:44:54.434Z,2.62
2023-03-16T01:46:04.374Z,2.68
2023-03-16T01:46:38.650Z,2.67
2023-03-16T01:47:12.245Z,2.72
2023-03-16T01:47:43.837Z,2.74
2023-03-16T01:48:19.895Z,2.72
2023-03-16T01:49:00.652Z,2.73
2023-03-16T01:49:36.882Z,2.82
2023-03-16T01:50:10.136Z,2.86
2023-03-16T01:50:44.611Z,2.81
2023-03-16T01:51:21.429Z,2.86
2023-03-16T01:52:03.267Z,2.69
2023-03-16T01:52:37.890Z,2.60
2023-03-16T01:53:09.979Z,2.55
2023-03-16T01:53:44.752Z,2.54
2023-03-16T01:54:23.970Z,2.53
2023-03-16T01:55:02.123Z,2.48
2023-03-16T01:55:33.754Z,2.45
2023-03-16T01:56:08.399Z,2.43
2023-03-16T01:56:45.829Z,2.50
2023-03-16T01:57:20.273Z,2.53
2023-03-16T01:57:51.805Z,2.45
2023-03-16T01:58:23.525Z,2.50
2023-03-16T01:58:58.782Z,2.54
2023-03-16T01:59:40.271Z,2.65
2023-03-16T02:00:19.619Z,2.63
2023-03-16T02:01:07.104Z,2.52
2023-03-16T02:01:38.949Z,2.60
2023-03-16T02:02:11.350Z,2.61
2023-03-16T02:02:45.021Z,2.51
2023-03-16T02:03:25.258Z,2.51
2023-03-16T02:04:30.088Z,2.54
2023-03-16T02:05:09.968Z,2.61
2023-03-16T02:05:44.739Z,2.53
2023-03-16T02:06:20.497Z,2.70
2023-03-16T02:06:57.919Z,2.60
2023-03-16T02:07:32.385Z,2.55
2023-03-16T02:08:05.872Z,2.56
2023-03-16T02:08:39.159Z,2.48
2023-03-16T02:09:11.678Z,2.43
2023-03-16T02:09:47.963Z,2.46
2023-03-16T02:10:20.368Z,2.55
2023-03-16T02:10:54.752Z,2.56
2023-03-16T02:11:28.383Z,2.58
2023-03-16T02:12:08.195Z,2.54
2023-03-16T02:12:44.670Z,2.44
2023-03-16T02:13:16.288Z,2.50
2023-03-16T02:13:49.078Z,2.51
2023-03-16T02:14:20.873Z,2.51
2023-03-16T02:14:52.653Z,2.50
2023-03-16T02:15:24.839Z,2.65
2023-03-16T02:15:56.869Z,2.55
2023-03-16T02:16:28.683Z,2.51
2023-03-16T02:17:00.679Z,2.55
2023-03-16T02:17:34.441Z,2.55
2023-03-16T02:18:11.133Z,2.53
2023-03-16T02:18:43.485Z,2.51
2023-03-16T02:19:23.685Z,2.57
2023-03-16T02:20:16.516Z,2.62
2023-03-16T02:20:48.050Z,2.66
2023-03-16T02:21:39.582Z,2.54
2023-03-16T02:22:14.022Z,2.52
2023-03-16T02:22:48.462Z,2.50
2023-03-16T02:23:22.050Z,2.51
2023-03-16T02:23:54.328Z,2.51
2023-03-16T02:24:26.133Z,2.51
2023-03-16T02:24:57.806Z,2.57
2023-03-16T02:25:42.022Z,2.70
2023-03-16T02:26:34.528Z,2.61
2023-03-16T02:27:10.372Z,2.62
2023-03-16T02:28:15.812Z,2.62
2023-03-16T02:29:19.390Z,2.66
2023-03-16T02:30:11.680Z,2.64
2023-03-16T02:30:53.264Z,2.59
2023-03-16T02:31:25.554Z,2.65
2023-03-16T02:31:58.263Z,2.61
2023-03-16T02:32:30.916Z,2.57
2023-03-16T02:33:05.033Z,2.53
2023-03-16T02:33:36.964Z,2.55
2023-03-16T02:34:09.818Z,2.71
2023-03-16T02:34:42.235Z,2.61
2023-03-16T02:35:14.459Z,2.67
2023-03-16T02:35:46.387Z,2.74
2023-03-16T02:36:19.448Z,2.66
2023-03-16T02:36:53.086Z,2.80
2023-03-16T02:37:28.595Z,2.73
2023-03-16T02:38:00.349Z,2.83
2023-03-16T02:38:35.635Z,2.81
2023-03-16T02:39:07.238Z,2.74
2023-03-16T02:39:47.638Z,2.64
2023-03-16T02:40:27.289Z,2.70
2023-03-16T02:41:13.283Z,2.70
2023-03-16T02:41:46.043Z,2.77
2023-03-16T02:42:21.802Z,2.67
2023-03-16T02:43:06.482Z,2.76
2023-03-16T02:43:52.292Z,2.64
2023-03-16T02:44:35.267Z,2.75
2023-03-16T02:45:09.630Z,2.62
2023-03-16T02:45:45.709Z,2.60
2023-03-16T02:46:18.155Z,2.59
2023-03-16T02:46:50.066Z,2.65
2023-03-16T02:47:31.088Z,2.77
2023-03-16T02:48:03.753Z,2.72
2023-03-16T02:48:42.803Z,2.70
2023-03-16T02:49:20.682Z,2.79
2023-03-16T02:49:52.310Z,2.78
2023-03-16T02:50:23.910Z,2.75
2023-03-16T02:50:55.685Z,2.78
2023-03-16T02:51:27.653Z,2.69
2023-03-16T02:51:59.596Z,2.67
2023-03-16T02:52:31.213Z,2.71
2023-03-16T02:53:02.789Z,2.75
2023-03-16T02:53:34.369Z,2.80
2023-03-16T02:54:07.246Z,2.70
2023-03-16T02:54:39.785Z,2.67
2023-03-16T02:55:11.319Z,2.73
2023-03-16T02:55:43.480Z,2.73
2023-03-16T02:56:15.068Z,2.67
2023-03-16T02:56:46.830Z,2.59
2023-03-16T02:57:19.020Z,2.60
2023-03-16T02:57:52.261Z,2.60
2023-03-16T02:58:24.348Z,2.60
2023-03-16T02:58:57.418Z,2.60
2023-03-16T02:59:30.146Z,2.71
2023-03-16T03:00:02.127Z,2.67
2023-03-16T03:00:35.026Z,2.67
2023-03-16T03:01:06.789Z,2.77
2023-03-16T03:01:39.592Z,2.76
2023-03-16T03:02:11.476Z,2.74
2023-03-16T03:02:43.602Z,2.76
2023-03-16T03:03:17.022Z,2.85
2023-03-16T03:03:48.679Z,2.71
2023-03-16T03:04:23.416Z,2.73
2023-03-16T03:04:54.964Z,2.82
2023-03-16T03:05:28.204Z,2.79
2023-03-16T03:06:00.439Z,2.67
2023-03-16T03:06:32.672Z,2.82
2023-03-16T03:07:05.458Z,2.74
2023-03-16T03:07:48.562Z,2.76
2023-03-16T03:08:22.833Z,2.73
2023-03-16T03:08:54.552Z,2.84
2023-03-16T03:09:26.184Z,2.94
2023-03-16T03:09:58.800Z,2.86
2023-03-16T03:10:31.129Z,2.85
2023-03-16T03:11:02.792Z,2.83
2023-03-16T03:11:34.386Z,2.82
2023-03-16T03:12:06.276Z,2.94
2023-03-16T03:12:38.048Z,2.74
2023-03-16T03:13:12.450Z,2.79
2023-03-16T03:13:46.452Z,2.91
2023-03-16T03:14:22.743Z,2.81
2023-03-16T03:14:57.247Z,2.81
2023-03-16T03:15:29.197Z,2.94
2023-03-16T03:16:12.697Z,2.74
2023-03-16T03:16:46.896Z,2.71
2023-03-16T03:17:20.413Z,2.71
2023-03-16T03:17:52.417Z,2.70
2023-03-16T03:18:25.310Z,2.82
2023-03-16T03:18:58.581Z,2.83
2023-03-16T03:19:33.775Z,2.79
2023-03-16T03:20:16.978Z,2.78
2023-03-16T03:20:48.674Z,2.92
2023-03-16T03:21:21.955Z,2.85
2023-03-16T03:21:56.754Z,2.91
2023-03-16T03:22:28.611Z,2.96
2023-03-16T03:23:00.509Z,2.89
2023-03-16T03:23:32.101Z,2.97
2023-03-16T03:24:05.447Z,2.94
2023-03-16T03:24:39.002Z,2.98
2023-03-16T03:25:11.792Z,2.82
2023-03-16T03:25:43.446Z,2.79
2023-03-16T03:26:15.951Z,2.82
2023-03-16T03:26:48.770Z,2.77
2023-03-16T03:27:24.671Z,2.86
2023-03-16T03:27:58.087Z,3.02
2023-03-16T03:28:30.608Z,2.93
2023-03-16T03:29:02.427Z,2.83
2023-03-16T03:29:37.044Z,2.85
2023-03-16T03:30:10.830Z,2.98
2023-03-16T03:30:42.478Z,2.84
2023-03-16T03:31:16.162Z,2.92
2023-03-16T03:31:47.757Z,2.87
2023-03-16T03:32:19.408Z,2.97
2023-03-16T03:32:52.520Z,2.80
2023-03-16T03:33:25.496Z,2.76
2023-03-16T03:33:57.052Z,2.73
2023-03-16T03:34:29.386Z,2.72
2023-03-16T03:35:02.896Z,2.81
2023-03-16T03:35:34.505Z,2.70
2023-03-16T03:36:06.383Z,2.69
2023-03-16T03:36:41.497Z,2.72
2023-03-16T03:37:13.156Z,2.81
2023-03-16T03:37:46.459Z,2.86
2023-03-16T03:38:19.500Z,2.78
2023-03-16T03:38:51.197Z,2.82
2023-03-16T03:39:24.762Z,2.88
2023-03-16T03:39:56.777Z,2.82
2023-03-16T03:40:28.658Z,2.81
2023-03-16T03:41:04.091Z,2.86
2023-03-16T03:41:38.469Z,2.93
2023-03-16T03:42:11.982Z,2.96
2023-03-16T03:42:43.646Z,3.00
2023-03-16T03:43:15.936Z,2.97
2023-03-16T03:43:49.435Z,2.96
2023-03-16T03:44:23.128Z,2.98
2023-03-16T03:44:54.698Z,2.95
2023-03-16T03:45:26.547Z,2.85
2023-03-16T03:45:59.501Z,2.85
2023-03-16T03:46:31.324Z,3.00
2023-03-16T03:47:03.305Z,3.04
2023-03-16T03:47:35.629Z,2.98
2023-03-16T03:48:09.160Z,3.00
2023-03-16T03:48:41.062Z,3.00
2023-03-16T03:49:12.632Z,3.00
2023-03-16T03:49:44.246Z,3.03
2023-03-16T03:50:16.068Z,3.00
2023-03-16T03:51:04.112Z,2.98
2023-03-16T03:51:51.329Z,2.82
2023-03-16T03:52:28.741Z,2.97
2023-03-16T03:53:00.517Z,3.00
2023-03-16T03:53:34.915Z,3.03
2023-03-16T03:54:29.338Z,2.88
2023-03-16T03:55:02.842Z,3.00
2023-03-16T03:55:35.046Z,2.98
2023-03-16T03:56:07.148Z,2.99
2023-03-16T03:56:38.811Z,2.87
2023-03-16T03:57:14.848Z,2.79
2023-03-16T03:57:46.749Z,2.89
2023-03-16T03:58:18.691Z,3.02
2023-03-16T03:58:50.335Z,3.00
2023-03-16T03:59:31.273Z,2.93
2023-03-16T04:00:13.727Z,3.04
2023-03-16T04:00:45.929Z,2.91
2023-03-16T04:01:17.761Z,2.89
2023-03-16T04:01:49.475Z,3.00
2023-03-16T04:02:21.436Z,2.88
2023-03-16T04:02:57.218Z,3.02
2023-03-16T04:03:35.760Z,2.94
2023-03-16T04:04:07.355Z,2.98
2023-03-16T04:04:39.970Z,3.01
2023-03-16T04:05:13.924Z,3.01
2023-03-16T04:05:45.489Z,2.91
2023-03-16T04:06:17.528Z,3.07
2023-03-16T04:06:51.578Z,2.99
2023-03-16T04:07:23.185Z,3.02
2023-03-16T04:07:59.024Z,2.93
2023-03-16T04:08:30.570Z,2.86
2023-03-16T04:09:02.271Z,2.97
2023-03-16T04:09:34.718Z,3.04
2023-03-16T04:10:07.934Z,2.91
2023-03-16T04:10:43.505Z,2.86
2023-03-16T04:11:15.048Z,2.84
2023-03-16T04:11:46.631Z,2.94
2023-03-16T04:12:18.331Z,2.95
2023-03-16T04:12:50.223Z,2.91
2023-03-16T04:13:21.786Z,3.02
2023-03-16T04:13:54.098Z,3.07
2023-03-16T04:14:25.670Z,3.06
2023-03-16T04:14:57.451Z,3.09
2023-03-16T04:15:32.919Z,3.13
2023-03-16T04:16:34.135Z,3.00
2023-03-16T04:17:06.208Z,2.93
2023-03-16T04:17:40.397Z,2.94
2023-03-16T04:18:14.487Z,2.94
2023-03-16T04:18:47.063Z,2.92
2023-03-16T04:19:18.613Z,3.09
2023-03-16T04:19:50.394Z,3.00
2023-03-16T04:20:23.566Z,2.94
2023-03-16T04:20:55.550Z,2.93
2023-03-16T04:21:28.908Z,3.00
2023-03-16T04:22:00.519Z,2.93
2023-03-16T04:22:32.214Z,2.92
2023-03-16T04:23:05.013Z,2.89
2023-03-16T04:23:37.001Z,3.06
2023-03-16T04:24:08.628Z,3.17
2023-03-16T04:24:43.210Z,3.23
2023-03-16T04:25:17.515Z,3.14
2023-03-16T04:25:49.990Z,3.03
2023-03-16T04:26:25.595Z,3.02
2023-03-16T04:26:58.212Z,3.07
2023-03-16T04:27:29.754Z,2.99
2023-03-16T04:28:02.238Z,2.95
2023-03-16T04:28:36.760Z,2.94
2023-03-16T04:29:08.354Z,2.95
2023-03-16T04:29:40.665Z,2.88
2023-03-16T04:30:14.389Z,2.98
2023-03-16T04:30:51.070Z,3.08
2023-03-16T04:31:31.436Z,3.05
2023-03-16T04:32:03.534Z,2.97
2023-03-16T04:32:36.018Z,2.93
2023-03-16T04:33:07.765Z,2.99
2023-03-16T04:33:39.920Z,3.01
2023-03-16T04:34:12.929Z,2.96
2023-03-16T04:34:44.557Z,2.99
2023-03-16T04:35:19.315Z,2.96
2023-03-16T04:35:58.118Z,2.98
2023-03-16T04:36:30.287Z,3.04
2023-03-16T04:37:02.469Z,2.96
2023-03-16T04:37:35.289Z,3.00
2023-03-16T04:38:07.953Z,3.01
2023-03-16T04:38:46.271Z,2.94
2023-03-16T04:39:18.878Z,2.91
2023-03-16T04:39:50.563Z,2.84
2023-03-16T04:40:22.175Z,2.99
2023-03-16T04:41:01.791Z,2.84
2023-03-16T04:41:38.191Z,2.83
2023-03-16T04:42:21.756Z,2.86
2023-03-16T04:42:53.421Z,2.84
2023-03-16T04:43:26.223Z,2.78
2023-03-16T04:44:01.883Z,2.76
2023-03-16T04:44:33.454Z,2.79
2023-03-16T04:45:05.489Z,2.78
2023-03-16T04:45:37.107Z,2.72
2023-03-16T04:46:09.357Z,2.82
2023-03-16T04:46:41.042Z,2.97
2023-03-16T04:47:16.646Z,2.84
2023-03-16T04:47:50.106Z,3.00
2023-03-16T04:48:21.995Z,2.92
2023-03-16T04:48:54.205Z,2.79
2023-03-16T04:49:26.610Z,2.84
2023-03-16T04:49:58.402Z,2.87
2023-03-16T04:50:31.191Z,2.86
2023-03-16T04:51:03.935Z,2.73
2023-03-16T04:51:38.083Z,2.73
2023-03-16T04:52:13.192Z,2.75
2023-03-16T04:52:45.639Z,2.68
2023-03-16T04:53:17.514Z,2.68
2023-03-16T04:53:49.804Z,2.79
2023-03-16T04:54:28.505Z,2.68
2023-03-16T04:55:00.148Z,2.68
2023-03-16T04:55:31.803Z,2.66
2023-03-16T04:56:04.285Z,2.67
2023-03-16T04:56:36.407Z,2.74
2023-03-16T04:57:12.742Z,2.76
2023-03-16T04:57:49.275Z,2.79
2023-03-16T04:58:22.721Z,2.65
2023-03-16T04:58:56.963Z,2.69
2023-03-16T04:59:30.517Z,2.67
2023-03-16T05:00:11.810Z,2.69
2023-03-16T05:00:55.365Z,2.71
2023-03-16T05:01:45.353Z,2.75
2023-03-16T05:02:20.055Z,2.69
2023-03-16T05:02:52.273Z,2.77
2023-03-16T05:03:24.125Z,2.90
2023-03-16T05:03:57.056Z,2.83
2023-03-16T05:04:29.893Z,2.77
2023-03-16T05:05:01.568Z,2.80
2023-03-16T05:05:35.011Z,2.83
2023-03-16T05:06:07.244Z,2.95
2023-03-16T05:06:41.309Z,3.06
2023-03-16T05:07:13.288Z,3.00
2023-03-16T05:07:50.069Z,2.92
2023-03-16T05:08:22.629Z,2.83
2023-03-16T05:08:55.709Z,2.92
2023-03-16T05:09:27.373Z,2.86
2023-03-16T05:09:58.949Z,2.87
2023-03-16T05:10:31.138Z,2.99
2023-03-16T05:11:02.791Z,2.97
2023-03-16T05:11:38.260Z,3.02
2023-03-16T05:12:13.091Z,3.00
2023-03-16T05:12:45.300Z,2.96
2023-03-16T05:13:16.872Z,3.00
2023-03-16T05:13:50.812Z,2.86
2023-03-16T05:14:22.560Z,2.79
2023-03-16T05:15:05.215Z,2.87
2023-03-16T05:15:42.475Z,2.94
2023-03-16T05:16:22.997Z,2.97
2023-03-16T05:16:55.400Z,2.96
2023-03-16T05:17:27.856Z,3.00
2023-03-16T05:17:59.824Z,3.08
2023-03-16T05:18:33.234Z,3.00
2023-03-16T05:19:05.407Z,3.02
2023-03-16T05:19:39.206Z,3.12
2023-03-16T05:20:15.429Z,3.11
2023-03-16T05:20:56.025Z,2.97
2023-03-16T05:21:34.247Z,2.94
2023-03-16T05:22:10.296Z,2.87
2023-03-16T05:22:45.545Z,2.90
2023-03-16T05:23:22.838Z,3.01
2023-03-16T05:24:00.053Z,3.02
2023-03-16T05:24:31.651Z,3.10
2023-03-16T05:25:05.270Z,2.97
2023-03-16T05:25:38.102Z,3.03
2023-03-16T05:26:13.212Z,3.05
2023-03-16T05:26:45.836Z,2.89
2023-03-16T05:27:20.477Z,2.91
2023-03-16T05:27:54.340Z,3.04
2023-03-16T05:28:42.562Z,3.06
2023-03-16T05:29:16.825Z,3.09
2023-03-16T05:29:49.807Z,2.94
2023-03-16T05:30:21.546Z,3.06
2023-03-16T05:30:53.300Z,3.01
2023-03-16T05:31:32.672Z,3.01
2023-03-16T05:32:06.545Z,2.99
2023-03-16T05:32:38.404Z,2.98
2023-03-16T05:33:10.016Z,2.99
2023-03-16T05:33:41.647Z,2.94
2023-03-16T05:34:16.585Z,2.93
2023-03-16T05:34:48.264Z,2.83
2023-03-16T05:35:19.846Z,2.88
2023-03-16T05:35:52.331Z,2.93
2023-03-16T05:36:24.802Z,2.85
2023-03-16T05:36:59.864Z,2.76
2023-03-16T05:37:31.451Z,2.85
2023-03-16T05:38:03.109Z,2.78
2023-03-16T05:38:39.145Z,2.73
2023-03-16T05:39:13.429Z,2.78
2023-03-16T05:39:48.894Z,2.78
2023-03-16T05:40:22.993Z,2.77
2023-03-16T05:41:10.380Z,2.95
2023-03-16T05:41:57.476Z,2.79
2023-03-16T05:42:34.781Z,2.80
2023-03-16T05:43:07.118Z,2.98
2023-03-16T05:43:43.628Z,2.92
2023-03-16T05:44:15.480Z,2.93
2023-03-16T05:45:09.417Z,2.82
2023-03-16T05:45:53.229Z,2.82
2023-03-16T05:46:24.882Z,2.80
2023-03-16T05:46:57.531Z,2.93
2023-03-16T05:47:29.096Z,3.03
2023-03-16T05:48:02.414Z,3.02
2023-03-16T05:48:35.740Z,3.00
2023-03-16T05:49:07.782Z,2.87
2023-03-16T05:49:39.631Z,2.90
2023-03-16T05:50:17.154Z,2.88
2023-03-16T05:50:50.681Z,2.86
2023-03-16T05:51:26.568Z,2.90
2023-03-16T05:51:58.494Z,2.93
2023-03-16T05:52:30.144Z,3.01
2023-03-16T05:53:04.308Z,2.93
2023-03-16T05:53:36.182Z,2.89
2023-03-16T05:54:13.968Z,2.93
2023-03-16T05:54:49.482Z,2.99
2023-03-16T05:55:21.187Z,2.88
2023-03-16T05:55:59.719Z,2.83
2023-03-16T05:56:31.333Z,2.82
2023-03-16T05:57:06.792Z,2.88
2023-03-16T05:57:38.673Z,2.86
2023-03-16T05:58:11.859Z,2.95
2023-03-16T05:58:45.709Z,2.95
2023-03-16T05:59:20.255Z,2.99
2023-03-16T05:59:57.433Z,3.09
2023-03-16T06:00:30.215Z,2.97
2023-03-16T06:01:15.752Z,3.08
2023-03-16T06:01:50.200Z,3.07
2023-03-16T06:02:22.097Z,3.04
2023-03-16T06:02:54.681Z,3.05
2023-03-16T06:03:28.016Z,3.10
2023-03-16T06:04:03.174Z,3.23
2023-03-16T06:04:38.324Z,3.21
2023-03-16T06:05:10.398Z,3.13
2023-03-16T06:05:45.177Z,3.10
2023-03-16T06:06:17.416Z,3.15
2023-03-16T06:06:59.364Z,3.15
2023-03-16T06:07:34.134Z,3.13
2023-03-16T06:08:05.759Z,3.08
2023-03-16T06:08:37.959Z,3.12
2023-03-16T06:09:13.776Z,3.05
2023-03-16T06:09:46.585Z,3.02
2023-03-16T06:10:21.264Z,3.00
2023-03-16T06:10:53.248Z,3.00
2023-03-16T06:11:25.457Z,3.04
2023-03-16T06:11:57.032Z,3.02
2023-03-16T06:12:28.701Z,3.08
2023-03-16T06:13:00.853Z,3.14
2023-03-16T06:13:32.482Z,3.09
2023-03-16T06:14:04.318Z,3.14
2023-03-16T06:14:36.378Z,3.23
2023-03-16T06:15:09.549Z,3.13
2023-03-16T06:15:41.724Z,3.28
2023-03-16T06:16:14.428Z,3.22
2023-03-16T06:16:46.054Z,3.18
2023-03-16T06:17:18.796Z,3.23
2023-03-16T06:17:51.649Z,3.19
2023-03-16T06:18:23.206Z,3.15
2023-03-16T06:18:59.138Z,3.21
2023-03-16T06:19:31.752Z,3.24
2023-03-16T06:20:11.494Z,3.21
2023-03-16T06:20:44.274Z,3.29
2023-03-16T06:21:16.358Z,3.28
2023-03-16T06:21:48.407Z,3.21
2023-03-16T06:22:20.162Z,3.30
2023-03-16T06:22:51.807Z,3.28
2023-03-16T06:23:23.405Z,3.24
2023-03-16T06:23:56.071Z,3.28
2023-03-16T06:24:27.635Z,3.28
2023-03-16T06:24:59.231Z,3.22
2023-03-16T06:25:31.231Z,3.26
2023-03-16T06:26:02.864Z,3.24
2023-03-16T06:26:36.753Z,3.24
2023-03-16T06:27:10.052Z,3.33
2023-03-16T06:27:54.518Z,3.24
2023-03-16T06:28:26.136Z,3.27
2023-03-16T06:28:57.764Z,3.32
2023-03-16T06:29:29.728Z,3.43
2023-03-16T06:30:01.630Z,3.37
2023-03-16T06:30:34.074Z,3.33
2023-03-16T06:31:06.035Z,3.31
2023-03-16T06:31:40.069Z,3.31
2023-03-16T06:32:12.851Z,3.34
2023-03-16T06:32:45.816Z,3.30
2023-03-16T06:33:17.454Z,3.30
2023-03-16T06:33:49.088Z,3.38
2023-03-16T06:34:21.061Z,3.45
2023-03-16T06:34:53.091Z,3.39
2023-03-16T06:35:24.713Z,3.37
2023-03-16T06:36:10.345Z,3.45
2023-03-16T06:36:46.265Z,3.50
2023-03-16T06:37:18.729Z,3.41
2023-03-16T06:37:50.375Z,3.36
2023-03-16T06:38:43.672Z,3.43
2023-03-16T06:39:24.781Z,3.42
2023-03-16T06:39:56.525Z,3.42
2023-03-16T06:40:31.506Z,3.47
2023-03-16T06:41:03.232Z,3.45
2023-03-16T06:41:38.129Z,3.51
2023-03-16T06:42:10.868Z,3.53
2023-03-16T06:42:46.274Z,3.50
2023-03-16T06:43:20.548Z,3.56
2023-03-16T06:43:52.140Z,3.58
2023-03-16T06:44:24.086Z,3.61
2023-03-16T06:45:08.078Z,3.60
2023-03-16T06:45:39.855Z,3.57
2023-03-16T06:46:11.985Z,3.62
2023-03-16T06:46:43.738Z,3.66
2023-03-16T06:47:16.086Z,3.61
2023-03-16T06:47:48.500Z,3.58
2023-03-16T06:48:20.564Z,3.66
2023-03-16T06:48:52.813Z,3.61
2023-03-16T06:49:24.669Z,3.64
2023-03-16T06:49:56.298Z,3.65
2023-03-16T06:50:30.493Z,3.66
2023-03-16T06:51:02.055Z,3.62
2023-03-16T06:51:34.781Z,3.64
2023-03-16T06:52:06.469Z,3.61
2023-03-16T06:52:38.721Z,3.63
2023-03-16T06:53:10.369Z,3.59
2023-03-16T06:53:42.336Z,3.57
2023-03-16T06:54:14.171Z,3.54
2023-03-16T06:54:45.840Z,3.55
2023-03-16T06:55:18.183Z,3.65
2023-03-16T06:55:51.778Z,3.62
2023-03-16T06:56:23.834Z,3.68
2023-03-16T06:56:55.372Z,3.73
2023-03-16T06:57:27.070Z,3.67
2023-03-16T06:57:58.641Z,3.62
2023-03-16T06:58:31.176Z,3.59
2023-03-16T06:59:02.760Z,3.56
2023-03-16T06:59:35.054Z,3.68
2023-03-16T07:00:07.421Z,3.64
2023-03-16T07:00:39.231Z,3.68
2023-03-16T07:01:12.636Z,3.70
2023-03-16T07:01:45.023Z,3.71
2023-03-16T07:02:17.087Z,3.62
2023-03-16T07:02:48.738Z,3.61
2023-03-16T07:03:20.394Z,3.60
2023-03-16T07:03:57.329Z,3.59
2023-03-16T07:04:34.098Z,3.65
2023-03-16T07:05:06.325Z,3.66
2023-03-16T07:05:37.973Z,3.60
2023-03-16T07:06:10.025Z,3.58
2023-03-16T07:06:41.781Z,3.62
2023-03-16T07:07:13.369Z,3.69
2023-03-16T07:07:45.555Z,3.72
2023-03-16T07:08:17.109Z,3.70
2023-03-16T07:08:48.681Z,3.69
2023-03-16T07:09:22.032Z,3.71
2023-03-16T07:09:53.763Z,3.71
2023-03-16T07:10:25.643Z,3.71
2023-03-16T07:10:57.202Z,3.77
2023-03-16T07:11:28.732Z,3.87
2023-03-16T07:12:02.073Z,3.95
2023-03-16T07:12:39.095Z,4.00
2023-03-16T07:13:10.698Z,4.02
2023-03-16T07:13:42.537Z,4.04
2023-03-16T07:14:14.223Z,4.01
2023-03-16T07:14:48.866Z,4.06
2023-03-16T07:15:26.767Z,3.95
2023-03-16T07:16:00.840Z,3.89
2023-03-16T07:16:32.506Z,3.95
2023-03-16T07:17:07.137Z,4.01
2023-03-16T07:17:39.313Z,4.10
2023-03-16T07:18:14.702Z,4.02
2023-03-16T07:18:46.986Z,4.04
2023-03-16T07:19:20.693Z,4.09
2023-03-16T07:19:52.482Z,4.01
2023-03-16T07:20:24.255Z,3.96
2023-03-16T07:20:55.787Z,3.93
2023-03-16T07:21:32.127Z,3.96
2023-03-16T07:22:03.996Z,4.01
2023-03-16T07:22:41.692Z,3.92
2023-03-16T07:23:15.660Z,4.03
2023-03-16T07:23:48.279Z,4.10
2023-03-16T07:24:24.296Z,4.07
2023-03-16T07:24:57.476Z,4.04
2023-03-16T07:25:31.705Z,4.07
2023-03-16T07:26:04.191Z,4.05
2023-03-16T07:26:37.851Z,4.07
2023-03-16T07:27:11.416Z,4.02
2023-03-16T07:27:45.521Z,4.21
2023-03-16T07:28:21.678Z,4.22
2023-03-16T07:28:53.378Z,4.24
2023-03-16T07:29:25.258Z,4.29
2023-03-16T07:29:57.099Z,4.37
2023-03-16T07:30:29.551Z,4.40
2023-03-16T07:31:04.050Z,4.43
2023-03-16T07:31:42.803Z,4.40
2023-03-16T07:32:19.878Z,4.43
2023-03-16T07:32:52.343Z,4.40
2023-03-16T07:33:26.661Z,4.37